sensor_id;sensor_type;location;lat;lon;timestamp;pressure;altitude;pressure_sealevel;temperature;humidity
55540;BME280;41384;51.418;7.286;2022-10-04T00:00:50;100639.81;;;11.96;90.66
55540;BME280;41384;51.418;7.286;2022-10-04T00:03:29;100641.81;;;11.94;89.93
55540;BME280;41384;51.418;7.286;2022-10-04T00:05:57;100633.44;;;11.91;90.75
55540;BME280;41384;51.418;7.286;2022-10-04T00:08:25;100636.31;;;11.96;91.25
55540;BME280;41384;51.418;7.286;2022-10-04T00:11:05;100639.06;;;12.03;91.40
55540;BME280;41384;51.418;7.286;2022-10-04T00:13:32;100640.31;;;12.14;90.14
55540;BME280;41384;51.418;7.286;2022-10-04T00:15:58;100635.69;;;12.29;89.46
55540;BME280;41384;51.418;7.286;2022-10-04T00:18:38;100637.19;;;12.45;87.68
55540;BME280;41384;51.418;7.286;2022-10-04T00:21:06;100634.50;;;12.32;88.67
55540;BME280;41384;51.418;7.286;2022-10-04T00:26:03;100633.97;;;12.57;86.68
55540;BME280;41384;51.418;7.286;2022-10-04T00:28:42;100630.34;;;12.71;85.56
55540;BME280;41384;51.418;7.286;2022-10-04T00:31:24;100629.53;;;12.70;85.97
55540;BME280;41384;51.418;7.286;2022-10-04T00:36:54;100623.41;;;12.63;86.06
55540;BME280;41384;51.418;7.286;2022-10-04T00:39:25;100618.09;;;12.70;85.41
55540;BME280;41384;51.418;7.286;2022-10-04T00:42:40;100612.63;;;12.78;84.88
55540;BME280;41384;51.418;7.286;2022-10-04T00:44:51;100609.41;;;12.90;84.25
55540;BME280;41384;51.418;7.286;2022-10-04T00:49:55;100604.53;;;13.00;83.85
55540;BME280;41384;51.418;7.286;2022-10-04T00:52:26;100601.00;;;12.73;85.39
55540;BME280;41384;51.418;7.286;2022-10-04T00:54:57;100602.84;;;12.79;85.76
55540;BME280;41384;51.418;7.286;2022-10-04T00:57:35;100596.72;;;12.65;86.76
55540;BME280;41384;51.418;7.286;2022-10-04T01:02:47;100589.56;;;12.59;87.31
55540;BME280;41384;51.418;7.286;2022-10-04T01:05:31;100597.88;;;12.42;88.63
55540;BME280;41384;51.418;7.286;2022-10-04T01:08:10;100608.28;;;12.44;88.26
55540;BME280;41384;51.418;7.286;2022-10-04T01:13:17;100619.03;;;12.35;89.68
55540;BME280;41384;51.418;7.286;2022-10-04T01:15:52;100618.25;;;12.48;88.74
55540;BME280;41384;51.418;7.286;2022-10-04T01:20:59;100595.22;;;12.42;88.96
55540;BME280;41384;51.418;7.286;2022-10-04T01:23:40;100599.72;;;12.48;88.85
55540;BME280;41384;51.418;7.286;2022-10-04T01:29:11;100587.75;;;12.66;86.09
55540;BME280;41384;51.418;7.286;2022-10-04T01:31:51;100583.66;;;12.50;87.75
55540;BME280;41384;51.418;7.286;2022-10-04T01:34:20;100586.88;;;12.45;88.35
55540;BME280;41384;51.418;7.286;2022-10-04T01:36:47;100583.25;;;12.60;87.52
55540;BME280;41384;51.418;7.286;2022-10-04T01:39:15;100581.84;;;12.64;87.92
55540;BME280;41384;51.418;7.286;2022-10-04T01:41:48;100573.91;;;12.70;87.32
55540;BME280;41384;51.418;7.286;2022-10-04T01:44:44;100572.09;;;12.84;85.18
55540;BME280;41384;51.418;7.286;2022-10-04T01:47:15;100567.22;;;12.81;85.06
55540;BME280;41384;51.418;7.286;2022-10-04T01:49:45;100560.09;;;12.89;84.82
55540;BME280;41384;51.418;7.286;2022-10-04T01:52:17;100558.84;;;12.84;85.18
55540;BME280;41384;51.418;7.286;2022-10-04T01:54:47;100550.28;;;12.89;84.92
55540;BME280;41384;51.418;7.286;2022-10-04T01:57:18;100547.63;;;12.89;84.41
55540;BME280;41384;51.418;7.286;2022-10-04T02:00:04;100534.00;;;12.86;84.98
55540;BME280;41384;51.418;7.286;2022-10-04T02:02:40;100541.34;;;12.97;84.01
55540;BME280;41384;51.418;7.286;2022-10-04T02:05:11;100542.56;;;12.88;84.27
55540;BME280;41384;51.418;7.286;2022-10-04T02:07:38;100549.28;;;12.97;83.75
55540;BME280;41384;51.418;7.286;2022-10-04T02:10:11;100551.53;;;12.87;84.39
55540;BME280;41384;51.418;7.286;2022-10-04T02:12:47;100541.91;;;12.65;85.29
55540;BME280;41384;51.418;7.286;2022-10-04T02:15:15;100539.91;;;12.88;84.17
55540;BME280;41384;51.418;7.286;2022-10-04T02:17:43;100541.72;;;12.87;84.29
55540;BME280;41384;51.418;7.286;2022-10-04T02:20:13;100544.78;;;12.91;84.37
55540;BME280;41384;51.418;7.286;2022-10-04T02:22:40;100546.41;;;12.72;86.14
55540;BME280;41384;51.418;7.286;2022-10-04T02:25:07;100544.78;;;12.70;86.13
55540;BME280;41384;51.418;7.286;2022-10-04T02:27:33;100532.94;;;12.73;85.81
55540;BME280;41384;51.418;7.286;2022-10-04T02:30:08;100534.38;;;12.69;85.29
55540;BME280;41384;51.418;7.286;2022-10-04T02:32:35;100518.06;;;12.72;84.81
55540;BME280;41384;51.418;7.286;2022-10-04T02:35:20;100519.50;;;12.75;84.87
55540;BME280;41384;51.418;7.286;2022-10-04T02:37:48;100508.25;;;12.39;87.60
55540;BME280;41384;51.418;7.286;2022-10-04T02:40:20;100504.72;;;12.11;89.04
55540;BME280;41384;51.418;7.286;2022-10-04T02:42:57;100501.13;;;12.33;87.48
55540;BME280;41384;51.418;7.286;2022-10-04T02:45:45;100499.50;;;12.45;87.23
55540;BME280;41384;51.418;7.286;2022-10-04T02:51:16;100495.47;;;12.90;83.70
55540;BME280;41384;51.418;7.286;2022-10-04T02:53:50;100505.03;;;12.70;85.00
55540;BME280;41384;51.418;7.286;2022-10-04T02:56:17;100508.47;;;12.44;86.47
55540;BME280;41384;51.418;7.286;2022-10-04T02:58:43;100496.63;;;12.26;88.19
55540;BME280;41384;51.418;7.286;2022-10-04T03:01:16;100494.56;;;12.22;89.27
55540;BME280;41384;51.418;7.286;2022-10-04T03:03:48;100500.31;;;12.25;89.85
55540;BME280;41384;51.418;7.286;2022-10-04T03:06:16;100499.47;;;12.25;88.95
55540;BME280;41384;51.418;7.286;2022-10-04T03:08:44;100485.00;;;12.14;90.46
55540;BME280;41384;51.418;7.286;2022-10-04T03:11:12;100484.41;;;12.25;89.24
55540;BME280;41384;51.418;7.286;2022-10-04T03:13:40;100490.09;;;12.09;90.07
55540;BME280;41384;51.418;7.286;2022-10-04T03:16:08;100487.44;;;12.09;90.77
55540;BME280;41384;51.418;7.286;2022-10-04T03:18:35;100492.97;;;12.28;89.46
55540;BME280;41384;51.418;7.286;2022-10-04T03:21:04;100482.38;;;12.14;89.78
55540;BME280;41384;51.418;7.286;2022-10-04T03:23:31;100487.03;;;12.19;90.04
55540;BME280;41384;51.418;7.286;2022-10-04T03:26:02;100485.63;;;12.16;90.84
55540;BME280;41384;51.418;7.286;2022-10-04T03:28:28;100486.44;;;12.23;89.83
55540;BME280;41384;51.418;7.286;2022-10-04T03:30:54;100475.66;;;12.18;89.75
55540;BME280;41384;51.418;7.286;2022-10-04T03:33:23;100469.13;;;12.14;90.25
55540;BME280;41384;51.418;7.286;2022-10-04T03:35:55;100467.13;;;12.30;89.47
55540;BME280;41384;51.418;7.286;2022-10-04T03:38:22;100469.75;;;12.30;89.69
55540;BME280;41384;51.418;7.286;2022-10-04T03:40:53;100472.59;;;12.28;90.80
55540;BME280;41384;51.418;7.286;2022-10-04T03:43:24;100474.22;;;12.16;91.30
55540;BME280;41384;51.418;7.286;2022-10-04T03:45:50;100481.78;;;12.39;90.66
55540;BME280;41384;51.418;7.286;2022-10-04T03:48:24;100479.13;;;12.25;90.62
55540;BME280;41384;51.418;7.286;2022-10-04T03:50:52;100480.13;;;12.11;91.96
55540;BME280;41384;51.418;7.286;2022-10-04T03:53:26;100484.63;;;12.31;91.60
55540;BME280;41384;51.418;7.286;2022-10-04T03:55:53;100473.88;;;12.46;89.03
55540;BME280;41384;51.418;7.286;2022-10-04T03:58:26;100473.44;;;12.55;87.84
55540;BME280;41384;51.418;7.286;2022-10-04T04:01:13;100462.25;;;12.60;86.71
55540;BME280;41384;51.418;7.286;2022-10-04T04:03:53;100470.78;;;12.42;88.49
55540;BME280;41384;51.418;7.286;2022-10-04T04:06:21;100463.06;;;12.47;87.50
55540;BME280;41384;51.418;7.286;2022-10-04T04:08:51;100465.53;;;12.49;86.89
55540;BME280;41384;51.418;7.286;2022-10-04T04:11:23;100465.94;;;12.46;87.22
55540;BME280;41384;51.418;7.286;2022-10-04T04:14:01;100455.13;;;12.54;87.11
55540;BME280;41384;51.418;7.286;2022-10-04T04:16:30;100452.69;;;12.52;86.51
55540;BME280;41384;51.418;7.286;2022-10-04T04:18:59;100456.34;;;12.51;86.35
55540;BME280;41384;51.418;7.286;2022-10-04T04:21:26;100466.13;;;12.44;86.60
55540;BME280;41384;51.418;7.286;2022-10-04T04:24:03;100459.41;;;12.62;85.61
55540;BME280;41384;51.418;7.286;2022-10-04T04:29:10;100444.13;;;12.44;87.13
55540;BME280;41384;51.418;7.286;2022-10-04T04:31:45;100441.50;;;12.44;86.47
55540;BME280;41384;51.418;7.286;2022-10-04T04:36:41;100440.84;;;12.21;87.34
55540;BME280;41384;51.418;7.286;2022-10-04T04:39:08;100451.44;;;12.21;86.39
55540;BME280;41384;51.418;7.286;2022-10-04T04:41:51;100452.59;;;11.99;87.58
55540;BME280;41384;51.418;7.286;2022-10-04T04:44:17;100456.66;;;11.94;89.17
55540;BME280;41384;51.418;7.286;2022-10-04T04:46:44;100454.00;;;11.94;89.33
55540;BME280;41384;51.418;7.286;2022-10-04T04:49:10;100448.94;;;12.06;88.93
55540;BME280;41384;51.418;7.286;2022-10-04T04:51:40;100437.78;;;12.18;88.09
55540;BME280;41384;51.418;7.286;2022-10-04T04:54:06;100442.84;;;12.13;88.42
55540;BME280;41384;51.418;7.286;2022-10-04T04:56:32;100452.84;;;12.24;87.63
55540;BME280;41384;51.418;7.286;2022-10-04T04:59:01;100438.31;;;11.93;89.39
55540;BME280;41384;51.418;7.286;2022-10-04T05:01:30;100435.22;;;11.89;90.04
55540;BME280;41384;51.418;7.286;2022-10-04T05:06:45;100417.81;;;12.22;87.58
55540;BME280;41384;51.418;7.286;2022-10-04T05:09:27;100413.25;;;11.82;89.81
55540;BME280;41384;51.418;7.286;2022-10-04T05:11:58;100415.22;;;11.60;92.39
55540;BME280;41384;51.418;7.286;2022-10-04T05:14:26;100414.88;;;11.83;90.76
55540;BME280;41384;51.418;7.286;2022-10-04T05:16:55;100416.09;;;11.87;90.43
55540;BME280;41384;51.418;7.286;2022-10-04T05:19:26;100409.88;;;12.02;89.33
55540;BME280;41384;51.418;7.286;2022-10-04T05:21:56;100412.44;;;11.88;90.38
55540;BME280;41384;51.418;7.286;2022-10-04T05:24:26;100406.78;;;11.98;89.18
55540;BME280;41384;51.418;7.286;2022-10-04T05:26:56;100401.16;;;12.21;87.10
55540;BME280;41384;51.418;7.286;2022-10-04T05:29:25;100401.75;;;12.17;86.79
55540;BME280;41384;51.418;7.286;2022-10-04T05:31:56;100399.31;;;12.02;88.66
55540;BME280;41384;51.418;7.286;2022-10-04T05:34:29;100401.34;;;12.26;86.82
55540;BME280;41384;51.418;7.286;2022-10-04T05:37:05;100415.59;;;12.39;86.08
55540;BME280;41384;51.418;7.286;2022-10-04T05:39:54;100413.16;;;12.17;87.30
55540;BME280;41384;51.418;7.286;2022-10-04T05:42:27;100412.16;;;12.45;85.93
55540;BME280;41384;51.418;7.286;2022-10-04T05:44:59;100416.44;;;12.53;85.10
55540;BME280;41384;51.418;7.286;2022-10-04T05:47:29;100419.69;;;12.48;85.95
55540;BME280;41384;51.418;7.286;2022-10-04T05:49:56;100421.50;;;12.21;88.13
55540;BME280;41384;51.418;7.286;2022-10-04T05:52:32;100426.69;;;11.80;89.63
55540;BME280;41384;51.418;7.286;2022-10-04T06:03:48;100427.91;;;11.85;89.61
55540;BME280;41384;51.418;7.286;2022-10-04T06:06:23;100419.38;;;11.82;89.72
55540;BME280;41384;51.418;7.286;2022-10-04T06:09:17;100426.03;;;11.72;90.04
55540;BME280;41384;51.418;7.286;2022-10-04T06:11:59;100428.50;;;11.80;88.67
55540;BME280;41384;51.418;7.286;2022-10-04T06:17:54;100424.00;;;11.74;91.52
55540;BME280;41384;51.418;7.286;2022-10-04T06:23:12;100422.28;;;12.01;88.95
55540;BME280;41384;51.418;7.286;2022-10-04T06:25:48;100414.16;;;12.03;87.86
55540;BME280;41384;51.418;7.286;2022-10-04T06:28:26;100410.69;;;12.16;87.19
55540;BME280;41384;51.418;7.286;2022-10-04T06:48:27;100412.34;;;12.23;86.54
55540;BME280;41384;51.418;7.286;2022-10-04T06:51:02;100418.00;;;12.00;86.96
55540;BME280;41384;51.418;7.286;2022-10-04T06:56:39;100427.53;;;11.94;87.83
55540;BME280;41384;51.418;7.286;2022-10-04T06:59:23;100426.91;;;11.92;89.17
55540;BME280;41384;51.418;7.286;2022-10-04T07:01:56;100424.47;;;11.91;88.93
55540;BME280;41384;51.418;7.286;2022-10-04T07:04:52;100418.75;;;11.80;89.97
55540;BME280;41384;51.418;7.286;2022-10-04T07:10:00;100427.94;;;11.98;88.84
55540;BME280;41384;51.418;7.286;2022-10-04T07:12:28;100428.34;;;11.95;89.15
55540;BME280;41384;51.418;7.286;2022-10-04T07:14:56;100435.88;;;11.98;88.78
55540;BME280;41384;51.418;7.286;2022-10-04T07:17:37;100445.50;;;12.13;87.87
55540;BME280;41384;51.418;7.286;2022-10-04T07:20:04;100436.72;;;11.99;88.60
55540;BME280;41384;51.418;7.286;2022-10-04T07:22:41;100434.50;;;12.02;88.31
55540;BME280;41384;51.418;7.286;2022-10-04T07:25:14;100441.84;;;12.07;88.09
55540;BME280;41384;51.418;7.286;2022-10-04T07:28:01;100443.47;;;12.08;88.57
55540;BME280;41384;51.418;7.286;2022-10-04T07:30:59;100440.44;;;12.24;88.36
55540;BME280;41384;51.418;7.286;2022-10-04T07:33:30;100438.81;;;12.30;88.18
55540;BME280;41384;51.418;7.286;2022-10-04T07:36:07;100435.34;;;12.36;88.09
55540;BME280;41384;51.418;7.286;2022-10-04T07:39:11;100438.00;;;12.36;88.86
55540;BME280;41384;51.418;7.286;2022-10-04T07:41:34;100441.66;;;12.29;88.55
55540;BME280;41384;51.418;7.286;2022-10-04T07:44:06;100445.16;;;12.43;88.66
55540;BME280;41384;51.418;7.286;2022-10-04T07:46:48;100441.28;;;12.59;87.40
55540;BME280;41384;51.418;7.286;2022-10-04T07:49:20;100449.63;;;12.42;87.95
55540;BME280;41384;51.418;7.286;2022-10-04T07:52:09;100447.19;;;12.54;87.53
55540;BME280;41384;51.418;7.286;2022-10-04T07:54:46;100450.84;;;12.60;87.06
55540;BME280;41384;51.418;7.286;2022-10-04T07:57:27;100454.72;;;12.57;87.48
55540;BME280;41384;51.418;7.286;2022-10-04T08:00:09;100452.88;;;12.37;88.04
55540;BME280;41384;51.418;7.286;2022-10-04T08:05:38;100443.72;;;12.67;87.04
55540;BME280;41384;51.418;7.286;2022-10-04T08:11:06;100446.75;;;12.50;87.18
55540;BME280;41384;51.418;7.286;2022-10-04T08:17:04;100443.28;;;12.70;87.20
55540;BME280;41384;51.418;7.286;2022-10-04T08:19:43;100448.59;;;12.70;86.71
55540;BME280;41384;51.418;7.286;2022-10-04T08:22:30;100446.75;;;12.97;85.86
55540;BME280;41384;51.418;7.286;2022-10-04T08:27:36;100429.91;;;13.37;83.99
55540;BME280;41384;51.418;7.286;2022-10-04T08:33:07;100435.66;;;13.34;84.39
55540;BME280;41384;51.418;7.286;2022-10-04T08:35:51;100445.13;;;13.03;85.27
55540;BME280;41384;51.418;7.286;2022-10-04T08:38:32;100445.13;;;13.03;84.54
55540;BME280;41384;51.418;7.286;2022-10-04T08:44:43;100439.28;;;13.53;83.21
55540;BME280;41384;51.418;7.286;2022-10-04T08:50:39;100433.19;;;13.39;84.34
55540;BME280;41384;51.418;7.286;2022-10-04T08:59:42;100445.06;;;13.82;82.31
55540;BME280;41384;51.418;7.286;2022-10-04T09:02:23;100438.47;;;13.92;82.63
55540;BME280;41384;51.418;7.286;2022-10-04T09:13:04;100432.22;;;14.11;80.62
55540;BME280;41384;51.418;7.286;2022-10-04T09:23:39;100419.91;;;14.49;78.95
55540;BME280;41384;51.418;7.286;2022-10-04T09:29:32;100422.84;;;14.66;77.21
55540;BME280;41384;51.418;7.286;2022-10-04T09:32:27;100408.16;;;14.64;77.54
55540;BME280;41384;51.418;7.286;2022-10-04T09:37:45;100400.44;;;14.81;77.11
55540;BME280;41384;51.418;7.286;2022-10-04T09:49:03;100387.00;;;14.94;73.79
55540;BME280;41384;51.418;7.286;2022-10-04T09:54:31;100389.09;;;14.92;73.07
55540;BME280;41384;51.418;7.286;2022-10-04T10:00:23;100387.41;;;14.98;74.63
55540;BME280;41384;51.418;7.286;2022-10-04T10:05:47;100387.34;;;15.05;72.54
55540;BME280;41384;51.418;7.286;2022-10-04T10:08:40;100385.72;;;15.03;73.26
55540;BME280;41384;51.418;7.286;2022-10-04T10:11:18;100395.91;;;15.07;72.77
55540;BME280;41384;51.418;7.286;2022-10-04T10:17:18;100387.91;;;15.25;70.95
55540;BME280;41384;51.418;7.286;2022-10-04T10:25:38;100386.13;;;15.38;71.53
55540;BME280;41384;51.418;7.286;2022-10-04T10:28:25;100385.47;;;15.24;70.84
55540;BME280;41384;51.418;7.286;2022-10-04T10:36:45;100379.06;;;15.43;70.94
55540;BME280;41384;51.418;7.286;2022-10-04T10:39:42;100377.44;;;15.61;71.69
55540;BME280;41384;51.418;7.286;2022-10-04T10:45:17;100376.78;;;15.78;70.48
55540;BME280;41384;51.418;7.286;2022-10-04T10:48:11;100368.81;;;15.78;69.91
55540;BME280;41384;51.418;7.286;2022-10-04T10:50:59;100371.34;;;16.03;69.43
55540;BME280;41384;51.418;7.286;2022-10-04T10:53:44;100370.97;;;15.99;69.93
55540;BME280;41384;51.418;7.286;2022-10-04T11:07:48;100364.63;;;16.12;69.64
55540;BME280;41384;51.418;7.286;2022-10-04T11:13:18;100368.59;;;16.22;68.23
55540;BME280;41384;51.418;7.286;2022-10-04T11:16:08;100360.81;;;16.20;67.92
55540;BME280;41384;51.418;7.286;2022-10-04T11:30:24;100351.81;;;16.45;66.80
55540;BME280;41384;51.418;7.286;2022-10-04T11:33:21;100346.38;;;16.40;68.33
55540;BME280;41384;51.418;7.286;2022-10-04T11:36:22;100341.13;;;16.57;67.44
55540;BME280;41384;51.418;7.286;2022-10-04T11:41:46;100334.06;;;16.62;67.62
55540;BME280;41384;51.418;7.286;2022-10-04T11:50:35;100319.34;;;16.72;65.98
55540;BME280;41384;51.418;7.286;2022-10-04T11:56:02;100324.31;;;16.80;66.31
55540;BME280;41384;51.418;7.286;2022-10-04T12:06:23;100309.84;;;16.64;68.01
55540;BME280;41384;51.418;7.286;2022-10-04T12:09:21;100306.94;;;16.66;67.13
55540;BME280;41384;51.418;7.286;2022-10-04T12:12:25;100312.03;;;16.67;66.62
55540;BME280;41384;51.418;7.286;2022-10-04T12:15:29;100309.72;;;16.71;65.84
55540;BME280;41384;51.418;7.286;2022-10-04T12:18:23;100308.09;;;16.70;66.59
55540;BME280;41384;51.418;7.286;2022-10-04T12:21:19;100306.69;;;16.79;65.02
55540;BME280;41384;51.418;7.286;2022-10-04T12:24:08;100308.78;;;16.77;66.67
55540;BME280;41384;51.418;7.286;2022-10-04T12:33:17;100291.63;;;16.85;63.23
55540;BME280;41384;51.418;7.286;2022-10-04T12:35:52;100291.03;;;16.83;62.69
55540;BME280;41384;51.418;7.286;2022-10-04T12:38:41;100286.34;;;17.02;61.94
55540;BME280;41384;51.418;7.286;2022-10-04T12:41:34;100279.88;;;16.98;61.86
55540;BME280;41384;51.418;7.286;2022-10-04T12:44:11;100290.41;;;16.92;62.00
55540;BME280;41384;51.418;7.286;2022-10-04T12:47:23;100276.63;;;16.96;62.65
55540;BME280;41384;51.418;7.286;2022-10-04T12:50:18;100274.31;;;16.99;62.18
55540;BME280;41384;51.418;7.286;2022-10-04T13:04:28;100244.78;;;17.18;60.07
55540;BME280;41384;51.418;7.286;2022-10-04T13:07:35;100253.03;;;17.16;62.94
55540;BME280;41384;51.418;7.286;2022-10-04T13:10:35;100246.16;;;17.20;60.81
55540;BME280;41384;51.418;7.286;2022-10-04T13:13:33;100247.13;;;17.14;60.94
55540;BME280;41384;51.418;7.286;2022-10-04T13:16:16;100247.84;;;17.10;61.48
55540;BME280;41384;51.418;7.286;2022-10-04T13:19:09;100248.63;;;17.10;61.49
55540;BME280;41384;51.418;7.286;2022-10-04T13:24:26;100250.91;;;17.18;61.54
55540;BME280;41384;51.418;7.286;2022-10-04T13:27:06;100249.66;;;17.21;61.10
55540;BME280;41384;51.418;7.286;2022-10-04T13:29:48;100242.00;;;17.25;61.19
55540;BME280;41384;51.418;7.286;2022-10-04T13:32:25;100243.91;;;17.29;60.30
55540;BME280;41384;51.418;7.286;2022-10-04T13:34:59;100245.78;;;17.29;61.50
55540;BME280;41384;51.418;7.286;2022-10-04T13:37:48;100239.78;;;17.21;59.50
55540;BME280;41384;51.418;7.286;2022-10-04T13:46:33;100221.22;;;17.27;60.53
55540;BME280;41384;51.418;7.286;2022-10-04T13:49:18;100218.84;;;17.30;59.95
55540;BME280;41384;51.418;7.286;2022-10-04T13:52:13;100224.06;;;17.37;60.52
55540;BME280;41384;51.418;7.286;2022-10-04T14:06:52;100211.69;;;17.31;59.96
55540;BME280;41384;51.418;7.286;2022-10-04T14:15:28;100207.78;;;17.39;59.75
55540;BME280;41384;51.418;7.286;2022-10-04T14:21:18;100201.56;;;17.33;60.03
55540;BME280;41384;51.418;7.286;2022-10-04T14:29:54;100201.56;;;17.33;58.83
55540;BME280;41384;51.418;7.286;2022-10-04T14:35:00;100197.03;;;17.50;59.20
55540;BME280;41384;51.418;7.286;2022-10-04T14:38:06;100206.09;;;17.32;59.86
55540;BME280;41384;51.418;7.286;2022-10-04T14:46:36;100200.44;;;17.29;60.08
55540;BME280;41384;51.418;7.286;2022-10-04T14:54:38;100182.34;;;17.31;59.11
55540;BME280;41384;51.418;7.286;2022-10-04T15:00:18;100176.34;;;17.41;60.21
55540;BME280;41384;51.418;7.286;2022-10-04T15:02:50;100178.03;;;17.47;61.29
55540;BME280;41384;51.418;7.286;2022-10-04T15:05:28;100172.22;;;17.33;60.86
55540;BME280;41384;51.418;7.286;2022-10-04T15:11:16;100176.81;;;17.20;61.41
55540;BME280;41384;51.418;7.286;2022-10-04T15:13:51;100177.84;;;17.19;61.54
55540;BME280;41384;51.418;7.286;2022-10-04T15:16:45;100186.69;;;17.20;61.59
55540;BME280;41384;51.418;7.286;2022-10-04T15:24:25;100181.81;;;17.17;62.05
55540;BME280;41384;51.418;7.286;2022-10-04T15:30:12;100170.34;;;17.16;63.17
55540;BME280;41384;51.418;7.286;2022-10-04T15:38:37;100171.47;;;17.20;63.06
55540;BME280;41384;51.418;7.286;2022-10-04T15:41:47;100166.69;;;17.23;64.22
55540;BME280;41384;51.418;7.286;2022-10-04T15:47:23;100177.47;;;17.11;65.38
55540;BME280;41384;51.418;7.286;2022-10-04T15:50:07;100185.97;;;16.96;65.59
55540;BME280;41384;51.418;7.286;2022-10-04T15:52:52;100185.03;;;17.02;68.12
55540;BME280;41384;51.418;7.286;2022-10-04T15:55:47;100179.09;;;16.83;68.38
55540;BME280;41384;51.418;7.286;2022-10-04T15:58:43;100184.13;;;16.96;69.97
55540;BME280;41384;51.418;7.286;2022-10-04T16:01:39;100173.50;;;16.84;71.12
55540;BME280;41384;51.418;7.286;2022-10-04T16:06:51;100186.09;;;16.60;72.90
55540;BME280;41384;51.418;7.286;2022-10-04T16:09:37;100186.19;;;16.65;73.17
55540;BME280;41384;51.418;7.286;2022-10-04T16:12:29;100191.00;;;16.51;73.97
55540;BME280;41384;51.418;7.286;2022-10-04T16:17:57;100195.78;;;16.37;75.60
55540;BME280;41384;51.418;7.286;2022-10-04T16:25:48;100199.19;;;16.09;78.13
55540;BME280;41384;51.418;7.286;2022-10-04T16:28:24;100194.44;;;16.11;78.54
55540;BME280;41384;51.418;7.286;2022-10-04T16:33:55;100187.50;;;15.86;78.71
55540;BME280;41384;51.418;7.286;2022-10-04T16:36:26;100190.03;;;15.69;79.49
55540;BME280;41384;51.418;7.286;2022-10-04T16:38:58;100190.25;;;15.55;80.12
55540;BME280;41384;51.418;7.286;2022-10-04T16:42:11;100192.91;;;15.55;80.94
55540;BME280;41384;51.418;7.286;2022-10-04T16:44:50;100188.75;;;15.48;81.66
55540;BME280;41384;51.418;7.286;2022-10-04T16:47:25;100192.19;;;15.36;82.53
55540;BME280;41384;51.418;7.286;2022-10-04T16:49:54;100178.19;;;15.29;82.37
55540;BME280;41384;51.418;7.286;2022-10-04T16:52:31;100181.41;;;15.31;82.59
55540;BME280;41384;51.418;7.286;2022-10-04T16:55:22;100176.69;;;15.33;83.37
55540;BME280;41384;51.418;7.286;2022-10-04T17:03:58;100174.09;;;15.14;83.77
55540;BME280;41384;51.418;7.286;2022-10-04T17:06:59;100176.63;;;15.09;83.79
55540;BME280;41384;51.418;7.286;2022-10-04T17:09:46;100173.59;;;14.94;84.77
55540;BME280;41384;51.418;7.286;2022-10-04T17:12:24;100188.56;;;14.88;84.09
55540;BME280;41384;51.418;7.286;2022-10-04T17:17:44;100178.41;;;14.85;84.06
55540;BME280;41384;51.418;7.286;2022-10-04T17:25:51;100176.88;;;14.77;84.17
55540;BME280;41384;51.418;7.286;2022-10-04T17:28:33;100179.63;;;14.70;83.96
55540;BME280;41384;51.418;7.286;2022-10-04T17:31:12;100181.25;;;14.71;84.59
55540;BME280;41384;51.418;7.286;2022-10-04T17:36:37;100190.25;;;14.70;84.69
55540;BME280;41384;51.418;7.286;2022-10-04T17:39:23;100188.91;;;14.61;85.43
55540;BME280;41384;51.418;7.286;2022-10-04T17:42:15;100183.72;;;14.66;85.64
55540;BME280;41384;51.418;7.286;2022-10-04T17:44:55;100186.03;;;14.63;85.36
55540;BME280;41384;51.418;7.286;2022-10-04T17:47:35;100190.91;;;14.66;86.35
55540;BME280;41384;51.418;7.286;2022-10-04T17:53:32;100181.94;;;15.09;83.32
55540;BME280;41384;51.418;7.286;2022-10-04T17:56:32;100182.66;;;15.16;82.99
55540;BME280;41384;51.418;7.286;2022-10-04T17:59:06;100169.81;;;15.13;81.98
55540;BME280;41384;51.418;7.286;2022-10-04T18:01:42;100169.63;;;15.27;81.42
55540;BME280;41384;51.418;7.286;2022-10-04T18:07:16;100162.59;;;15.56;79.01
55540;BME280;41384;51.418;7.286;2022-10-04T18:09:55;100165.00;;;15.34;79.93
55540;BME280;41384;51.418;7.286;2022-10-04T18:12:39;100167.78;;;15.39;80.14
55540;BME280;41384;51.418;7.286;2022-10-04T18:15:32;100177.50;;;15.45;79.56
55540;BME280;41384;51.418;7.286;2022-10-04T18:20:38;100184.59;;;15.52;79.34
55540;BME280;41384;51.418;7.286;2022-10-04T18:23:25;100185.16;;;15.66;78.75
55540;BME280;41384;51.418;7.286;2022-10-04T18:26:15;100184.94;;;15.67;78.42
55540;BME280;41384;51.418;7.286;2022-10-04T18:28:42;100202.88;;;15.60;79.09
55540;BME280;41384;51.418;7.286;2022-10-04T18:33:55;100196.59;;;15.42;80.98
55540;BME280;41384;51.418;7.286;2022-10-04T18:36:27;100195.16;;;15.28;82.08
55540;BME280;41384;51.418;7.286;2022-10-04T18:39:17;100200.50;;;15.28;82.44
55540;BME280;41384;51.418;7.286;2022-10-04T18:41:53;100199.78;;;15.21;83.19
55540;BME280;41384;51.418;7.286;2022-10-04T18:46:56;100192.97;;;15.25;82.64
55540;BME280;41384;51.418;7.286;2022-10-04T18:49:25;100192.53;;;15.40;80.96
55540;BME280;41384;51.418;7.286;2022-10-04T18:54:48;100190.47;;;15.42;81.24
55540;BME280;41384;51.418;7.286;2022-10-04T19:00:19;100204.06;;;14.91;83.98
55540;BME280;41384;51.418;7.286;2022-10-04T19:03:48;100208.53;;;15.09;83.77
55540;BME280;41384;51.418;7.286;2022-10-04T19:06:17;100213.22;;;14.95;84.79
55540;BME280;41384;51.418;7.286;2022-10-04T19:11:37;100227.63;;;14.50;88.54
55540;BME280;41384;51.418;7.286;2022-10-04T19:17:01;100222.53;;;14.67;86.80
55540;BME280;41384;51.418;7.286;2022-10-04T19:22:36;100224.31;;;14.55;88.02
55540;BME280;41384;51.418;7.286;2022-10-04T19:27:36;100217.22;;;14.67;88.13
55540;BME280;41384;51.418;7.286;2022-10-04T19:30:21;100203.94;;;14.67;87.89
55540;BME280;41384;51.418;7.286;2022-10-04T19:33:16;100196.16;;;14.72;86.75
55540;BME280;41384;51.418;7.286;2022-10-04T19:38:23;100196.06;;;14.79;86.66